sensor_id;sensor_type;location;lat;lon;timestamp;P1;durP1;ratioP1;P2;durP2;ratioP2
73015;SDS011;61893;50.074;14.440;2023-06-24T00:00:08;5.13;;;1.65;;
73015;SDS011;61893;50.074;14.440;2023-06-24T00:02:58;2.10;;;1.70;;
73015;SDS011;61893;50.074;14.440;2023-06-24T00:05:28;2.35;;;1.95;;
73015;SDS011;61893;50.074;14.440;2023-06-24T00:07:54;2.83;;;1.95;;
73015;SDS011;61893;50.074;14.440;2023-06-24T00:10:22;3.03;;;2.20;;
73015;SDS011;61893;50.074;14.440;2023-06-24T00:12:54;3.38;;;2.00;;
73015;SDS011;61893;50.074;14.440;2023-06-24T00:15:20;2.70;;;2.03;;
73015;SDS011;61893;50.074;14.440;2023-06-24T00:17:46;3.42;;;2.30;;
73015;SDS011;61893;50.074;14.440;2023-06-24T00:20:13;3.25;;;2.47;;
73015;SDS011;61893;50.074;14.440;2023-06-24T00:22:43;2.88;;;1.95;;
73015;SDS011;61893;50.074;14.440;2023-06-24T00:25:14;5.22;;;2.53;;
73015;SDS011;61893;50.074;14.440;2023-06-24T00:27:41;2.97;;;2.35;;
73015;SDS011;61893;50.074;14.440;2023-06-24T00:30:10;3.13;;;2.55;;
73015;SDS011;61893;50.074;14.440;2023-06-24T00:32:36;4.75;;;2.63;;
73015;SDS011;61893;50.074;14.440;2023-06-24T00:35:02;2.85;;;2.30;;
73015;SDS011;61893;50.074;14.440;2023-06-24T00:37:29;3.63;;;2.60;;
73015;SDS011;61893;50.074;14.440;2023-06-24T00:39:54;3.30;;;2.47;;
73015;SDS011;61893;50.074;14.440;2023-06-24T00:42:20;3.13;;;2.67;;
73015;SDS011;61893;50.074;14.440;2023-06-24T00:44:46;2.63;;;2.30;;
73015;SDS011;61893;50.074;14.440;2023-06-24T00:47:13;4.70;;;2.70;;
73015;SDS011;61893;50.074;14.440;2023-06-24T00:49:44;3.55;;;2.60;;
73015;SDS011;61893;50.074;14.440;2023-06-24T00:52:11;3.35;;;2.67;;
73015;SDS011;61893;50.074;14.440;2023-06-24T00:54:41;3.20;;;2.20;;
73015;SDS011;61893;50.074;14.440;2023-06-24T00:57:08;3.83;;;2.70;;
73015;SDS011;61893;50.074;14.440;2023-06-24T00:59:34;3.00;;;2.40;;
73015;SDS011;61893;50.074;14.440;2023-06-24T01:02:03;3.50;;;2.72;;
73015;SDS011;61893;50.074;14.440;2023-06-24T01:04:32;3.00;;;2.38;;
73015;SDS011;61893;50.074;14.440;2023-06-24T01:07:05;4.32;;;2.88;;
73015;SDS011;61893;50.074;14.440;2023-06-24T01:09:31;3.72;;;2.53;;
73015;SDS011;61893;50.074;14.440;2023-06-24T01:11:57;4.05;;;2.60;;
73015;SDS011;61893;50.074;14.440;2023-06-24T01:14:26;2.78;;;2.30;;
73015;SDS011;61893;50.074;14.440;2023-06-24T01:33:22;4.07;;;2.80;;
73015;SDS011;61893;50.074;14.440;2023-06-24T01:35:51;3.30;;;2.53;;
73015;SDS011;61893;50.074;14.440;2023-06-24T01:38:24;4.03;;;2.67;;
73015;SDS011;61893;50.074;14.440;2023-06-24T01:40:57;5.80;;;2.70;;
73015;SDS011;61893;50.074;14.440;2023-06-24T01:43:39;4.03;;;3.03;;
73015;SDS011;61893;50.074;14.440;2023-06-24T01:46:08;4.20;;;2.60;;
73015;SDS011;61893;50.074;14.440;2023-06-24T01:48:37;3.10;;;2.60;;
73015;SDS011;61893;50.074;14.440;2023-06-24T01:51:09;3.50;;;2.70;;
73015;SDS011;61893;50.074;14.440;2023-06-24T01:53:40;4.15;;;2.97;;
73015;SDS011;61893;50.074;14.440;2023-06-24T01:56:16;3.63;;;2.75;;
73015;SDS011;61893;50.074;14.440;2023-06-24T01:58:43;3.75;;;3.05;;
73015;SDS011;61893;50.074;14.440;2023-06-24T02:01:10;4.07;;;2.95;;
73015;SDS011;61893;50.074;14.440;2023-06-24T02:03:38;4.30;;;3.25;;
73015;SDS011;61893;50.074;14.440;2023-06-24T02:06:06;5.18;;;2.92;;
73015;SDS011;61893;50.074;14.440;2023-06-24T02:08:37;3.20;;;2.30;;
73015;SDS011;61893;50.074;14.440;2023-06-24T02:11:04;4.13;;;3.20;;
73015;SDS011;61893;50.074;14.440;2023-06-24T02:13:32;4.47;;;2.97;;
73015;SDS011;61893;50.074;14.440;2023-06-24T02:16:01;3.47;;;2.90;;
73015;SDS011;61893;50.074;14.440;2023-06-24T02:18:32;4.00;;;3.08;;
73015;SDS011;61893;50.074;14.440;2023-06-24T02:21:03;4.18;;;3.17;;
73015;SDS011;61893;50.074;14.440;2023-06-24T02:23:31;4.57;;;3.00;;
73015;SDS011;61893;50.074;14.440;2023-06-24T02:25:57;4.72;;;2.90;;
73015;SDS011;61893;50.074;14.440;2023-06-24T02:28:25;4.35;;;3.00;;
73015;SDS011;61893;50.074;14.440;2023-06-24T02:30:51;3.83;;;3.13;;
73015;SDS011;61893;50.074;14.440;2023-06-24T02:33:17;3.92;;;3.10;;
73015;SDS011;61893;50.074;14.440;2023-06-24T02:35:48;3.85;;;2.83;;
73015;SDS011;61893;50.074;14.440;2023-06-24T02:38:22;3.13;;;2.30;;
73015;SDS011;61893;50.074;14.440;2023-06-24T02:40:47;3.25;;;2.25;;
73015;SDS011;61893;50.074;14.440;2023-06-24T02:43:15;3.30;;;2.55;;
73015;SDS011;61893;50.074;14.440;2023-06-24T02:45:41;3.50;;;2.47;;
73015;SDS011;61893;50.074;14.440;2023-06-24T02:48:08;3.33;;;2.35;;
73015;SDS011;61893;50.074;14.440;2023-06-24T02:50:35;2.33;;;2.13;;
73015;SDS011;61893;50.074;14.440;2023-06-24T02:53:04;4.38;;;2.28;;
73015;SDS011;61893;50.074;14.440;2023-06-24T02:55:30;3.10;;;2.53;;
73015;SDS011;61893;50.074;14.440;2023-06-24T02:57:59;4.50;;;2.53;;
73015;SDS011;61893;50.074;14.440;2023-06-24T03:00:25;3.85;;;2.63;;
73015;SDS011;61893;50.074;14.440;2023-06-24T03:02:52;4.65;;;2.38;;
73015;SDS011;61893;50.074;14.440;2023-06-24T03:05:19;3.50;;;2.33;;
73015;SDS011;61893;50.074;14.440;2023-06-24T03:07:47;2.50;;;2.10;;
73015;SDS011;61893;50.074;14.440;2023-06-24T03:10:27;4.70;;;2.00;;
73015;SDS011;61893;50.074;14.440;2023-06-24T03:13:08;2.72;;;2.30;;
73015;SDS011;61893;50.074;14.440;2023-06-24T03:15:36;2.78;;;2.00;;
73015;SDS011;61893;50.074;14.440;2023-06-24T03:18:08;3.88;;;2.20;;
73015;SDS011;61893;50.074;14.440;2023-06-24T03:20:34;3.13;;;2.30;;
73015;SDS011;61893;50.074;14.440;2023-06-24T03:23:05;3.53;;;2.10;;
73015;SDS011;61893;50.074;14.440;2023-06-24T03:25:47;3.90;;;2.20;;
73015;SDS011;61893;50.074;14.440;2023-06-24T03:28:31;3.65;;;2.22;;
73015;SDS011;61893;50.074;14.440;2023-06-24T03:30:57;5.00;;;2.47;;
73015;SDS011;61893;50.074;14.440;2023-06-24T03:33:24;3.08;;;2.25;;
73015;SDS011;61893;50.074;14.440;2023-06-24T03:35:57;3.05;;;2.33;;
73015;SDS011;61893;50.074;14.440;2023-06-24T03:38:23;3.30;;;2.70;;
73015;SDS011;61893;50.074;14.440;2023-06-24T03:40:48;7.03;;;2.80;;
73015;SDS011;61893;50.074;14.440;2023-06-24T03:43:16;3.80;;;2.78;;
73015;SDS011;61893;50.074;14.440;2023-06-24T03:45:49;4.05;;;2.72;;
73015;SDS011;61893;50.074;14.440;2023-06-24T03:48:18;4.88;;;3.10;;
73015;SDS011;61893;50.074;14.440;2023-06-24T03:50:44;4.32;;;3.05;;
73015;SDS011;61893;50.074;14.440;2023-06-24T03:53:11;6.03;;;3.50;;
73015;SDS011;61893;50.074;14.440;2023-06-24T03:55:39;6.32;;;3.25;;
73015;SDS011;61893;50.074;14.440;2023-06-24T03:58:30;5.88;;;3.40;;
73015;SDS011;61893;50.074;14.440;2023-06-24T04:01:07;6.35;;;3.40;;
73015;SDS011;61893;50.074;14.440;2023-06-24T04:03:57;8.52;;;3.42;;
73015;SDS011;61893;50.074;14.440;2023-06-24T04:06:23;5.32;;;3.60;;
73015;SDS011;61893;50.074;14.440;2023-06-24T04:08:49;5.53;;;3.40;;
73015;SDS011;61893;50.074;14.440;2023-06-24T04:11:18;7.65;;;4.03;;
73015;SDS011;61893;50.074;14.440;2023-06-24T04:13:49;6.03;;;4.05;;
73015;SDS011;61893;50.074;14.440;2023-06-24T04:16:23;5.35;;;4.10;;
73015;SDS011;61893;50.074;14.440;2023-06-24T04:18:48;6.97;;;4.18;;
73015;SDS011;61893;50.074;14.440;2023-06-24T04:21:17;7.13;;;4.43;;
73015;SDS011;61893;50.074;14.440;2023-06-24T04:23:43;8.45;;;4.70;;
73015;SDS011;61893;50.074;14.440;2023-06-24T04:26:12;5.82;;;4.65;;
73015;SDS011;61893;50.074;14.440;2023-06-24T04:28:37;7.63;;;4.57;;
73015;SDS011;61893;50.074;14.440;2023-06-24T04:31:18;6.30;;;4.30;;
73015;SDS011;61893;50.074;14.440;2023-06-24T04:33:43;6.60;;;4.28;;
73015;SDS011;61893;50.074;14.440;2023-06-24T04:36:09;7.47;;;5.07;;
73015;SDS011;61893;50.074;14.440;2023-06-24T04:38:39;7.80;;;5.63;;
73015;SDS011;61893;50.074;14.440;2023-06-24T04:41:06;7.80;;;5.60;;
73015;SDS011;61893;50.074;14.440;2023-06-24T04:43:32;7.35;;;5.25;;
73015;SDS011;61893;50.074;14.440;2023-06-24T04:45:58;10.20;;;5.22;;
73015;SDS011;61893;50.074;14.440;2023-06-24T04:48:31;9.32;;;5.15;;
73015;SDS011;61893;50.074;14.440;2023-06-24T04:50:57;9.13;;;5.53;;
73015;SDS011;61893;50.074;14.440;2023-06-24T04:53:23;7.30;;;5.25;;
73015;SDS011;61893;50.074;14.440;2023-06-24T04:55:49;8.27;;;5.13;;
73015;SDS011;61893;50.074;14.440;2023-06-24T04:58:15;9.43;;;5.55;;
73015;SDS011;61893;50.074;14.440;2023-06-24T05:00:40;9.27;;;5.70;;
73015;SDS011;61893;50.074;14.440;2023-06-24T05:03:06;10.00;;;6.35;;
73015;SDS011;61893;50.074;14.440;2023-06-24T05:05:32;7.05;;;5.43;;
73015;SDS011;61893;50.074;14.440;2023-06-24T05:08:03;9.45;;;5.80;;
73015;SDS011;61893;50.074;14.440;2023-06-24T05:10:29;7.80;;;5.90;;
73015;SDS011;61893;50.074;14.440;2023-06-24T05:12:55;7.18;;;5.82;;
73015;SDS011;61893;50.074;14.440;2023-06-24T05:15:20;6.68;;;5.38;;
73015;SDS011;61893;50.074;14.440;2023-06-24T05:17:48;7.65;;;5.28;;
73015;SDS011;61893;50.074;14.440;2023-06-24T05:20:14;7.13;;;5.25;;
73015;SDS011;61893;50.074;14.440;2023-06-24T05:22:39;10.45;;;6.07;;
73015;SDS011;61893;50.074;14.440;2023-06-24T05:25:10;9.40;;;5.78;;
73015;SDS011;61893;50.074;14.440;2023-06-24T05:27:47;10.05;;;5.95;;
73015;SDS011;61893;50.074;14.440;2023-06-24T05:30:13;8.35;;;5.47;;
73015;SDS011;61893;50.074;14.440;2023-06-24T05:32:40;9.55;;;5.97;;
73015;SDS011;61893;50.074;14.440;2023-06-24T05:35:06;7.53;;;5.35;;
73015;SDS011;61893;50.074;14.440;2023-06-24T05:37:47;8.18;;;5.70;;
73015;SDS011;61893;50.074;14.440;2023-06-24T05:40:18;7.53;;;5.57;;
73015;SDS011;61893;50.074;14.440;2023-06-24T05:42:48;10.80;;;6.22;;
73015;SDS011;61893;50.074;14.440;2023-06-24T05:45:14;10.50;;;5.82;;
73015;SDS011;61893;50.074;14.440;2023-06-24T05:47:40;9.70;;;6.50;;
73015;SDS011;61893;50.074;14.440;2023-06-24T05:50:07;7.72;;;5.93;;
73015;SDS011;61893;50.074;14.440;2023-06-24T05:52:32;8.00;;;6.28;;
73015;SDS011;61893;50.074;14.440;2023-06-24T05:54:58;11.52;;;6.47;;
73015;SDS011;61893;50.074;14.440;2023-06-24T05:57:26;9.50;;;5.90;;
73015;SDS011;61893;50.074;14.440;2023-06-24T05:59:52;8.23;;;6.57;;
73015;SDS011;61893;50.074;14.440;2023-06-24T06:02:18;8.25;;;5.80;;
73015;SDS011;61893;50.074;14.440;2023-06-24T06:05:00;7.40;;;6.47;;
73015;SDS011;61893;50.074;14.440;2023-06-24T06:07:26;10.23;;;6.53;;
73015;SDS011;61893;50.074;14.440;2023-06-24T06:10:07;10.05;;;6.38;;
73015;SDS011;61893;50.074;14.440;2023-06-24T06:12:34;9.15;;;7.07;;
73015;SDS011;61893;50.074;14.440;2023-06-24T06:15:03;9.77;;;7.07;;
73015;SDS011;61893;50.074;14.440;2023-06-24T06:17:57;10.00;;;7.43;;
73015;SDS011;61893;50.074;14.440;2023-06-24T06:20:23;10.88;;;7.10;;
73015;SDS011;61893;50.074;14.440;2023-06-24T06:22:49;10.38;;;7.82;;
73015;SDS011;61893;50.074;14.440;2023-06-24T06:25:16;13.90;;;8.20;;
73015;SDS011;61893;50.074;14.440;2023-06-24T06:28:02;10.77;;;7.57;;
73015;SDS011;61893;50.074;14.440;2023-06-24T06:30:36;11.82;;;8.57;;
73015;SDS011;61893;50.074;14.440;2023-06-24T06:33:23;20.85;;;9.73;;
73015;SDS011;61893;50.074;14.440;2023-06-24T06:35:58;11.82;;;9.02;;
73015;SDS011;61893;50.074;14.440;2023-06-24T06:38:24;11.23;;;8.63;;
73015;SDS011;61893;50.074;14.440;2023-06-24T06:41:05;12.25;;;9.20;;
73015;SDS011;61893;50.074;14.440;2023-06-24T06:43:31;11.63;;;9.68;;
73015;SDS011;61893;50.074;14.440;2023-06-24T06:46:18;12.02;;;9.77;;
73015;SDS011;61893;50.074;14.440;2023-06-24T06:48:44;12.80;;;9.73;;
73015;SDS011;61893;50.074;14.440;2023-06-24T06:51:10;12.32;;;9.35;;
73015;SDS011;61893;50.074;14.440;2023-06-24T06:53:48;14.25;;;9.20;;
73015;SDS011;61893;50.074;14.440;2023-06-24T06:56:29;13.80;;;9.70;;
73015;SDS011;61893;50.074;14.440;2023-06-24T06:58:59;13.30;;;8.98;;
73015;SDS011;61893;50.074;14.440;2023-06-24T07:01:40;13.68;;;9.90;;
73015;SDS011;61893;50.074;14.440;2023-06-24T07:04:06;10.65;;;8.30;;
73015;SDS011;61893;50.074;14.440;2023-06-24T07:06:32;10.75;;;8.85;;
73015;SDS011;61893;50.074;14.440;2023-06-24T07:09:12;11.38;;;9.18;;
73015;SDS011;61893;50.074;14.440;2023-06-24T07:11:41;10.27;;;8.95;;
73015;SDS011;61893;50.074;14.440;2023-06-24T07:14:07;14.30;;;10.32;;
73015;SDS011;61893;50.074;14.440;2023-06-24T07:16:48;11.45;;;9.88;;
73015;SDS011;61893;50.074;14.440;2023-06-24T07:19:14;11.73;;;10.10;;
73015;SDS011;61893;50.074;14.440;2023-06-24T07:21:40;11.85;;;9.50;;
73015;SDS011;61893;50.074;14.440;2023-06-24T07:24:05;11.35;;;9.45;;
73015;SDS011;61893;50.074;14.440;2023-06-24T07:26:46;10.98;;;9.20;;
73015;SDS011;61893;50.074;14.440;2023-06-24T07:29:26;12.07;;;9.35;;
73015;SDS011;61893;50.074;14.440;2023-06-24T07:31:52;9.93;;;8.88;;
73015;SDS011;61893;50.074;14.440;2023-06-24T07:34:18;10.18;;;9.00;;
73015;SDS011;61893;50.074;14.440;2023-06-24T07:36:44;12.27;;;8.90;;
73015;SDS011;61893;50.074;14.440;2023-06-24T07:39:12;10.95;;;8.65;;
73015;SDS011;61893;50.074;14.440;2023-06-24T07:42:28;9.98;;;7.60;;
73015;SDS011;61893;50.074;14.440;2023-06-24T07:46:10;12.07;;;8.63;;
73015;SDS011;61893;50.074;14.440;2023-06-24T07:48:57;12.32;;;7.97;;
73015;SDS011;61893;50.074;14.440;2023-06-24T07:51:34;10.88;;;8.88;;
73015;SDS011;61893;50.074;14.440;2023-06-24T07:54:27;11.77;;;9.32;;
73015;SDS011;61893;50.074;14.440;2023-06-24T07:56:53;9.27;;;8.18;;
73015;SDS011;61893;50.074;14.440;2023-06-24T07:59:38;9.68;;;8.65;;
73015;SDS011;61893;50.074;14.440;2023-06-24T08:02:37;12.23;;;9.20;;
73015;SDS011;61893;50.074;14.440;2023-06-24T08:05:18;10.00;;;8.93;;
73015;SDS011;61893;50.074;14.440;2023-06-24T08:07:45;10.50;;;9.00;;
73015;SDS011;61893;50.074;14.440;2023-06-24T08:10:46;9.30;;;7.70;;
73015;SDS011;61893;50.074;14.440;2023-06-24T08:13:30;9.63;;;8.30;;
73015;SDS011;61893;50.074;14.440;2023-06-24T08:16:00;11.23;;;7.70;;
73015;SDS011;61893;50.074;14.440;2023-06-24T08:18:27;11.20;;;8.13;;
73015;SDS011;61893;50.074;14.440;2023-06-24T08:20:53;8.65;;;7.80;;
73015;SDS011;61893;50.074;14.440;2023-06-24T08:23:19;8.65;;;7.75;;
73015;SDS011;61893;50.074;14.440;2023-06-24T08:25:45;8.73;;;7.55;;
73015;SDS011;61893;50.074;14.440;2023-06-24T08:28:14;8.57;;;7.10;;
73015;SDS011;61893;50.074;14.440;2023-06-24T08:31:31;7.68;;;6.45;;
73015;SDS011;61893;50.074;14.440;2023-06-24T08:34:08;7.95;;;5.82;;
73015;SDS011;61893;50.074;14.440;2023-06-24T08:36:52;6.95;;;5.53;;
73015;SDS011;61893;50.074;14.440;2023-06-24T08:39:20;6.93;;;5.75;;
73015;SDS011;61893;50.074;14.440;2023-06-24T08:41:49;6.65;;;6.00;;
73015;SDS011;61893;50.074;14.440;2023-06-24T08:44:22;10.68;;;6.00;;
73015;SDS011;61893;50.074;14.440;2023-06-24T08:47:01;6.95;;;6.22;;
73015;SDS011;61893;50.074;14.440;2023-06-24T08:49:28;6.35;;;5.43;;
73015;SDS011;61893;50.074;14.440;2023-06-24T08:54:50;6.40;;;5.55;;
73015;SDS011;61893;50.074;14.440;2023-06-24T08:57:36;7.28;;;5.57;;
73015;SDS011;61893;50.074;14.440;2023-06-24T09:00:26;5.88;;;4.75;;
73015;SDS011;61893;50.074;14.440;2023-06-24T09:02:53;6.35;;;4.60;;
73015;SDS011;61893;50.074;14.440;2023-06-24T09:05:40;5.50;;;5.00;;
73015;SDS011;61893;50.074;14.440;2023-06-24T09:08:21;5.57;;;5.00;;
73015;SDS011;61893;50.074;14.440;2023-06-24T09:11:00;6.30;;;5.30;;
73015;SDS011;61893;50.074;14.440;2023-06-24T09:13:47;6.72;;;5.07;;
73015;SDS011;61893;50.074;14.440;2023-06-24T09:16:29;6.38;;;5.55;;
73015;SDS011;61893;50.074;14.440;2023-06-24T09:19:22;8.48;;;7.00;;
73015;SDS011;61893;50.074;14.440;2023-06-24T09:22:14;9.32;;;7.10;;
73015;SDS011;61893;50.074;14.440;2023-06-24T09:24:57;7.65;;;6.85;;
73015;SDS011;61893;50.074;14.440;2023-06-24T09:28:31;8.33;;;6.90;;
73015;SDS011;61893;50.074;14.440;2023-06-24T09:31:14;9.43;;;6.00;;
73015;SDS011;61893;50.074;14.440;2023-06-24T09:34:00;7.13;;;5.78;;
73015;SDS011;61893;50.074;14.440;2023-06-24T09:37:27;7.07;;;6.13;;
73015;SDS011;61893;50.074;14.440;2023-06-24T09:40:13;6.40;;;5.80;;
73015;SDS011;61893;50.074;14.440;2023-06-24T09:43:08;9.10;;;6.47;;
73015;SDS011;61893;50.074;14.440;2023-06-24T09:45:57;7.38;;;6.68;;
73015;SDS011;61893;50.074;14.440;2023-06-24T09:48:43;7.63;;;6.22;;
73015;SDS011;61893;50.074;14.440;2023-06-24T09:51:10;9.15;;;7.03;;
73015;SDS011;61893;50.074;14.440;2023-06-24T09:53:54;8.57;;;7.55;;
73015;SDS011;61893;50.074;14.440;2023-06-24T09:56:50;7.75;;;6.95;;
73015;SDS011;61893;50.074;14.440;2023-06-24T09:59:37;7.72;;;6.93;;
73015;SDS011;61893;50.074;14.440;2023-06-24T10:02:18;8.77;;;6.97;;
73015;SDS011;61893;50.074;14.440;2023-06-24T10:05:38;8.77;;;7.63;;
73015;SDS011;61893;50.074;14.440;2023-06-24T10:08:18;8.07;;;7.28;;
73015;SDS011;61893;50.074;14.440;2023-06-24T10:10:46;9.93;;;7.13;;
73015;SDS011;61893;50.074;14.440;2023-06-24T10:13:38;8.85;;;7.32;;
73015;SDS011;61893;50.074;14.440;2023-06-24T10:16:22;8.88;;;7.13;;
73015;SDS011;61893;50.074;14.440;2023-06-24T10:19:30;7.80;;;7.00;;
73015;SDS011;61893;50.074;14.440;2023-06-24T10:22:53;9.15;;;7.03;;
73015;SDS011;61893;50.074;14.440;2023-06-24T10:25:37;9.13;;;7.32;;
73015;SDS011;61893;50.074;14.440;2023-06-24T10:28:03;7.97;;;7.13;;
73015;SDS011;61893;50.074;14.440;2023-06-24T10:30:29;10.98;;;6.80;;
73015;SDS011;61893;50.074;14.440;2023-06-24T10:33:23;10.13;;;6.75;;
73015;SDS011;61893;50.074;14.440;2023-06-24T10:35:50;9.00;;;5.97;;
73015;SDS011;61893;50.074;14.440;2023-06-24T10:39:02;9.45;;;6.85;;
73015;SDS011;61893;50.074;14.440;2023-06-24T10:41:44;7.57;;;6.38;;
73015;SDS011;61893;50.074;14.440;2023-06-24T10:44:15;7.72;;;6.80;;
73015;SDS011;61893;50.074;14.440;2023-06-24T10:46:52;10.43;;;7.50;;
73015;SDS011;61893;50.074;14.440;2023-06-24T10:49:33;7.82;;;6.35;;
73015;SDS011;61893;50.074;14.440;2023-06-24T10:51:59;7.85;;;6.32;;
73015;SDS011;61893;50.074;14.440;2023-06-24T10:54:40;9.32;;;5.88;;
73015;SDS011;61893;50.074;14.440;2023-06-24T10:57:07;8.70;;;5.38;;
73015;SDS011;61893;50.074;14.440;2023-06-24T10:59:40;9.55;;;6.00;;
73015;SDS011;61893;50.074;14.440;2023-06-24T11:02:24;6.60;;;5.53;;
73015;SDS011;61893;50.074;14.440;2023-06-24T11:04:55;7.68;;;5.82;;
73015;SDS011;61893;50.074;14.440;2023-06-24T11:07:27;6.68;;;5.63;;
73015;SDS011;61893;50.074;14.440;2023-06-24T11:10:12;8.75;;;5.93;;
73015;SDS011;61893;50.074;14.440;2023-06-24T11:15:45;7.18;;;5.47;;
73015;SDS011;61893;50.074;14.440;2023-06-24T11:18:40;6.72;;;5.43;;
73015;SDS011;61893;50.074;14.440;2023-06-24T11:21:08;7.30;;;5.65;;
73015;SDS011;61893;50.074;14.440;2023-06-24T11:23:51;7.63;;;4.97;;
73015;SDS011;61893;50.074;14.440;2023-06-24T11:26:41;10.15;;;5.07;;
73015;SDS011;61893;50.074;14.440;2023-06-24T11:29:32;6.30;;;5.40;;
73015;SDS011;61893;50.074;14.440;2023-06-24T11:31:58;6.30;;;5.35;;
73015;SDS011;61893;50.074;14.440;2023-06-24T11:34:32;6.05;;;4.85;;
73015;SDS011;61893;50.074;14.440;2023-06-24T11:36:57;5.30;;;4.80;;
73015;SDS011;61893;50.074;14.440;2023-06-24T11:39:24;6.22;;;5.28;;
73015;SDS011;61893;50.074;14.440;2023-06-24T11:41:51;6.57;;;4.72;;
73015;SDS011;61893;50.074;14.440;2023-06-24T11:44:21;6.63;;;4.72;;
73015;SDS011;61893;50.074;14.440;2023-06-24T11:46:49;7.82;;;5.05;;
73015;SDS011;61893;50.074;14.440;2023-06-24T11:49:16;5.63;;;4.78;;
73015;SDS011;61893;50.074;14.440;2023-06-24T11:51:47;6.13;;;4.63;;
73015;SDS011;61893;50.074;14.440;2023-06-24T11:54:15;6.93;;;4.80;;
73015;SDS011;61893;50.074;14.440;2023-06-24T11:56:50;6.88;;;4.43;;
73015;SDS011;61893;50.074;14.440;2023-06-24T11:59:32;6.10;;;4.93;;
73015;SDS011;61893;50.074;14.440;2023-06-24T12:01:58;6.93;;;4.78;;
73015;SDS011;61893;50.074;14.440;2023-06-24T12:04:27;6.97;;;4.50;;
73015;SDS011;61893;50.074;14.440;2023-06-24T12:07:19;6.50;;;4.50;;
73015;SDS011;61893;50.074;14.440;2023-06-24T12:10:05;6.10;;;5.00;;
73015;SDS011;61893;50.074;14.440;2023-06-24T12:12:38;5.85;;;4.57;;
73015;SDS011;61893;50.074;14.440;2023-06-24T12:15:06;8.35;;;4.10;;
73015;SDS011;61893;50.074;14.440;2023-06-24T12:17:35;5.18;;;4.43;;
73015;SDS011;61893;50.074;14.440;2023-06-24T12:20:01;4.78;;;4.28;;
73015;SDS011;61893;50.074;14.440;2023-06-24T12:22:27;10.60;;;4.20;;
73015;SDS011;61893;50.074;14.440;2023-06-24T12:24:53;4.88;;;4.20;;
73015;SDS011;61893;50.074;14.440;2023-06-24T12:27:51;4.63;;;3.95;;
73015;SDS011;61893;50.074;14.440;2023-06-24T12:30:36;6.38;;;3.92;;
73015;SDS011;61893;50.074;14.440;2023-06-24T12:33:02;5.90;;;4.25;;
73015;SDS011;61893;50.074;14.440;2023-06-24T12:35:29;5.25;;;3.80;;
73015;SDS011;61893;50.074;14.440;2023-06-24T12:37:54;4.85;;;4.30;;
73015;SDS011;61893;50.074;14.440;2023-06-24T12:40:37;4.95;;;3.88;;
73015;SDS011;61893;50.074;14.440;2023-06-24T12:43:23;6.15;;;4.63;;
73015;SDS011;61893;50.074;14.440;2023-06-24T12:48:44;4.03;;;3.63;;
73015;SDS011;61893;50.074;14.440;2023-06-24T12:51:24;7.10;;;4.00;;
73015;SDS011;61893;50.074;14.440;2023-06-24T12:53:51;4.60;;;3.65;;
73015;SDS011;61893;50.074;14.440;2023-06-24T12:56:34;4.47;;;3.50;;
73015;SDS011;61893;50.074;14.440;2023-06-24T12:59:14;5.38;;;3.92;;
73015;SDS011;61893;50.074;14.440;2023-06-24T13:01:43;5.05;;;3.75;;
73015;SDS011;61893;50.074;14.440;2023-06-24T13:04:10;7.85;;;3.53;;
73015;SDS011;61893;50.074;14.440;2023-06-24T13:06:51;6.03;;;3.92;;
73015;SDS011;61893;50.074;14.440;2023-06-24T13:09:21;4.55;;;3.85;;
73015;SDS011;61893;50.074;14.440;2023-06-24T13:11:47;5.95;;;3.22;;
73015;SDS011;61893;50.074;14.440;2023-06-24T13:14:20;5.57;;;3.65;;
73015;SDS011;61893;50.074;14.440;2023-06-24T13:16:46;5.30;;;3.33;;
73015;SDS011;61893;50.074;14.440;2023-06-24T13:19:30;5.05;;;3.67;;
73015;SDS011;61893;50.074;14.440;2023-06-24T13:21:58;5.45;;;3.05;;
73015;SDS011;61893;50.074;14.440;2023-06-24T13:24:24;4.80;;;3.83;;
73015;SDS011;61893;50.074;14.440;2023-06-24T13:26:53;8.55;;;3.70;;
73015;SDS011;61893;50.074;14.440;2023-06-24T13:29:29;8.35;;;3.92;;
73015;SDS011;61893;50.074;14.440;2023-06-24T13:32:27;4.75;;;3.47;;
73015;SDS011;61893;50.074;14.440;2023-06-24T13:34:53;5.18;;;3.83;;
73015;SDS011;61893;50.074;14.440;2023-06-24T13:37:19;7.38;;;4.28;;
73015;SDS011;61893;50.074;14.440;2023-06-24T13:39:45;5.90;;;4.18;;
73015;SDS011;61893;50.074;14.440;2023-06-24T13:42:11;6.35;;;3.75;;
73015;SDS011;61893;50.074;14.440;2023-06-24T13:44:39;4.45;;;3.45;;
73015;SDS011;61893;50.074;14.440;2023-06-24T13:47:05;5.90;;;3.88;;
73015;SDS011;61893;50.074;14.440;2023-06-24T13:49:33;6.20;;;4.00;;
73015;SDS011;61893;50.074;14.440;2023-06-24T13:51:58;7.82;;;4.10;;
73015;SDS011;61893;50.074;14.440;2023-06-24T13:54:24;5.63;;;3.85;;
73015;SDS011;61893;50.074;14.440;2023-06-24T13:56:50;5.38;;;3.85;;
73015;SDS011;61893;50.074;14.440;2023-06-24T13:59:31;5.50;;;3.88;;
73015;SDS011;61893;50.074;14.440;2023-06-24T14:02:11;5.15;;;3.97;;
73015;SDS011;61893;50.074;14.440;2023-06-24T14:04:41;6.05;;;4.07;;
73015;SDS011;61893;50.074;14.440;2023-06-24T14:07:08;4.43;;;3.47;;
73015;SDS011;61893;50.074;14.440;2023-06-24T14:09:34;7.28;;;4.13;;
73015;SDS011;61893;50.074;14.440;2023-06-24T14:12:00;8.18;;;4.10;;
73015;SDS011;61893;50.074;14.440;2023-06-24T14:14:28;5.05;;;4.10;;
73015;SDS011;61893;50.074;14.440;2023-06-24T14:16:54;5.68;;;4.28;;
73015;SDS011;61893;50.074;14.440;2023-06-24T14:19:20;6.22;;;4.30;;
73015;SDS011;61893;50.074;14.440;2023-06-24T14:21:46;5.80;;;4.70;;
73015;SDS011;61893;50.074;14.440;2023-06-24T14:24:12;6.47;;;4.55;;
73015;SDS011;61893;50.074;14.440;2023-06-24T14:26:38;7.68;;;4.57;;
73015;SDS011;61893;50.074;14.440;2023-06-24T14:29:03;6.20;;;4.20;;
73015;SDS011;61893;50.074;14.440;2023-06-24T14:31:30;5.25;;;3.97;;
73015;SDS011;61893;50.074;14.440;2023-06-24T14:33:56;7.22;;;4.30;;
73015;SDS011;61893;50.074;14.440;2023-06-24T14:36:22;6.93;;;4.43;;
73015;SDS011;61893;50.074;14.440;2023-06-24T14:39:05;6.63;;;4.50;;
73015;SDS011;61893;50.074;14.440;2023-06-24T14:41:46;6.78;;;4.20;;
73015;SDS011;61893;50.074;14.440;2023-06-24T14:44:15;7.38;;;4.30;;
73015;SDS011;61893;50.074;14.440;2023-06-24T14:46:40;6.95;;;4.75;;
73015;SDS011;61893;50.074;14.440;2023-06-24T14:49:06;8.05;;;4.82;;
73015;SDS011;61893;50.074;14.440;2023-06-24T14:51:37;7.18;;;4.63;;
73015;SDS011;61893;50.074;14.440;2023-06-24T14:54:03;6.55;;;4.45;;
73015;SDS011;61893;50.074;14.440;2023-06-24T14:56:34;8.27;;;4.97;;
73015;SDS011;61893;50.074;14.440;2023-06-24T14:59:05;6.70;;;5.00;;
73015;SDS011;61893;50.074;14.440;2023-06-24T15:01:31;6.28;;;4.45;;
73015;SDS011;61893;50.074;14.440;2023-06-24T15:04:11;9.15;;;5.03;;
73015;SDS011;61893;50.074;14.440;2023-06-24T15:06:38;7.55;;;4.65;;
73015;SDS011;61893;50.074;14.440;2023-06-24T15:09:03;7.43;;;4.72;;
73015;SDS011;61893;50.074;14.440;2023-06-24T15:11:47;7.63;;;5.25;;
73015;SDS011;61893;50.074;14.440;2023-06-24T15:14:13;7.15;;;4.93;;
73015;SDS011;61893;50.074;14.440;2023-06-24T15:16:41;6.00;;;4.63;;
73015;SDS011;61893;50.074;14.440;2023-06-24T15:19:07;6.82;;;5.20;;
73015;SDS011;61893;50.074;14.440;2023-06-24T15:21:38;7.70;;;4.85;;
73015;SDS011;61893;50.074;14.440;2023-06-24T15:24:20;8.90;;;5.68;;
73015;SDS011;61893;50.074;14.440;2023-06-24T15:26:46;8.98;;;6.05;;
73015;SDS011;61893;50.074;14.440;2023-06-24T15:29:12;9.13;;;5.97;;
73015;SDS011;61893;50.074;14.440;2023-06-24T15:31:37;9.32;;;5.78;;
73015;SDS011;61893;50.074;14.440;2023-06-24T15:34:35;9.27;;;5.78;;